Time;durP1;ratioP1;P1;durP2;ratioP2;P2;SDS_P1;SDS_P2;PMS_P1;PMS_P2;Temp;Humidity;BMP_temperature;BMP_pressure;BME280_temperature;BME280_humidity;BME280_pressure;Samples;Min_cycle;Max_cycle;Signal;HPM_P1;HPM_P2
2022/05/12 00:00:53;;;;;;;4.75;1.95;;;12.10;99.90;;;;;;5148802;27;20491;-59
2022/05/12 00:03:18;;;;;;;8.63;2.25;;;12.10;99.90;;;;;;5132793;27;20054;-59
2022/05/12 00:05:45;;;;;;;5.78;2.08;;;12.00;99.90;;;;;;5151173;27;20147;-61
2022/05/12 00:08:11;;;;;;;5.30;2.00;;;12.00;99.90;;;;;;5133577;27;20046;-60
2022/05/12 00:10:38;;;;;;;4.05;1.65;;;12.00;99.90;;;;;;5133122;27;20046;-59
2022/05/12 00:13:04;;;;;;;5.15;1.80;;;12.00;99.90;;;;;;5132556;27;20042;-60
2022/05/12 00:15:33;;;;;;;4.80;1.85;;;12.00;99.90;;;;;;5151158;27;20113;-59
2022/05/12 00:18:02;;;;;;;6.28;1.80;;;11.90;99.90;;;;;;5132967;27;20495;-59
2022/05/12 00:20:28;;;;;;;5.55;2.20;;;11.90;99.90;;;;;;5150863;27;20423;-63
2022/05/12 00:23:19;;;;;;;5.10;1.70;;;11.90;99.90;;;;;;5151093;27;20087;-60
2022/05/12 00:25:47;;;;;;;5.00;1.80;;;11.80;99.90;;;;;;5150805;27;20046;-60
2022/05/12 00:28:14;;;;;;;5.38;1.83;;;11.80;99.90;;;;;;5151598;27;20043;-59
2022/05/12 00:30:41;;;;;;;2.58;1.33;;;11.80;99.90;;;;;;5150978;27;20129;-59
2022/05/12 00:33:07;;;;;;;7.47;1.92;;;11.70;99.90;;;;;;5132596;27;20087;-59
2022/05/12 00:35:34;;;;;;;5.35;1.60;;;;;;;;;;5132385;27;20055;-60
2022/05/12 00:38:00;;;;;;;5.63;1.75;;;11.60;99.90;;;;;;5151328;27;20112;-61
2022/05/12 00:40:26;;;;;;;5.85;1.67;;;11.60;99.90;;;;;;5119643;27;20035;-60
2022/05/12 00:42:57;;;;;;;4.22;1.35;;;11.60;99.90;;;;;;5169498;27;20054;-61
2022/05/12 00:45:23;;;;;;;3.38;1.23;;;11.40;99.90;;;;;;5115365;28;20049;-61
2022/05/12 00:47:49;;;;;;;3.78;1.67;;;11.40;99.90;;;;;;5130062;28;20049;-61
2022/05/12 00:50:16;;;;;;;5.20;1.45;;;11.40;99.90;;;;;;5146032;27;20042;-61
2022/05/12 00:52:43;;;;;;;4.57;1.58;;;11.40;99.90;;;;;;5153091;27;20058;-59
2022/05/12 00:55:20;;;;;;;2.70;1.30;;;11.40;99.90;;;;;;5138960;27;20503;-59
2022/05/12 00:57:50;;;;;;;5.10;1.80;;;11.40;99.90;;;;;;5114730;27;20138;-59
2022/05/12 01:00:18;;;;;;;4.85;1.60;;;11.30;99.90;;;;;;5155415;27;20042;-59
2022/05/12 01:02:47;;;;;;;3.88;1.38;;;11.30;99.90;;;;;;5162145;27;20129;-59
2022/05/12 01:05:14;;;;;;;4.50;1.40;;;11.20;99.90;;;;;;5150631;27;20043;-60
2022/05/12 01:07:41;;;;;;;3.42;1.30;;;11.20;99.90;;;;;;5150607;27;20039;-59
2022/05/12 01:10:09;;;;;;;3.95;1.60;;;11.20;99.90;;;;;;5159652;27;20085;-62
2022/05/12 01:12:38;;;;;;;4.35;1.73;;;11.20;99.90;;;;;;5152753;27;20057;-62
2022/05/12 01:15:06;;;;;;;4.22;1.55;;;11.20;99.90;;;;;;5131579;27;20043;-60
2022/05/12 01:17:31;;;;;;;6.13;1.70;;;11.10;99.90;;;;;;5150803;27;20051;-60
2022/05/12 01:19:57;;;;;;;2.92;1.40;;;11.10;99.90;;;;;;5152829;27;20050;-60
2022/05/12 01:22:34;;;;;;;3.97;1.63;;;11.00;99.90;;;;;;5147040;27;20050;-61
2022/05/12 01:25:00;;;;;;;4.80;1.60;;;11.00;99.90;;;;;;5150500;27;20111;-60
2022/05/12 01:27:29;;;;;;;3.50;1.40;;;11.00;99.90;;;;;;5150489;27;20092;-59
2022/05/12 01:29:58;;;;;;;3.85;1.80;;;10.90;99.90;;;;;;5158844;27;20042;-59
2022/05/12 01:32:27;;;;;;;5.75;2.00;;;10.90;99.90;;;;;;5155010;27;20102;-60
2022/05/12 01:34:53;;;;;;;4.78;1.73;;;10.90;99.90;;;;;;5174932;27;20789;-59
2022/05/12 01:37:20;;;;;;;6.45;1.50;;;10.90;99.90;;;;;;5139765;27;20049;-60
2022/05/12 01:39:46;;;;;;;2.50;1.60;;;10.90;99.90;;;;;;5136278;27;21253;-62
2022/05/12 01:42:12;;;;;;;4.30;1.60;;;10.80;99.90;;;;;;5153774;27;20055;-60
2022/05/12 01:44:40;;;;;;;3.00;1.40;;;10.80;99.90;;;;;;5135581;27;20054;-63
2022/05/12 01:47:07;;;;;;;4.50;1.60;;;10.80;99.90;;;;;;5154084;27;20118;-60
2022/05/12 01:49:33;;;;;;;3.22;1.70;;;10.80;99.90;;;;;;5136064;27;20031;-59
2022/05/12 01:52:00;;;;;;;4.68;1.40;;;10.70;99.90;;;;;;5134750;27;20091;-60
2022/05/12 01:54:27;;;;;;;4.53;1.80;;;10.70;99.90;;;;;;5135808;27;20456;-59
2022/05/12 01:56:54;;;;;;;6.50;1.80;;;10.60;99.90;;;;;;5153043;27;20171;-61
2022/05/12 01:59:20;;;;;;;5.75;1.88;;;10.60;99.90;;;;;;5139584;27;20426;-59
2022/05/12 02:01:47;;;;;;;4.43;2.15;;;10.60;99.90;;;;;;5167358;27;20051;-59
2022/05/12 02:04:13;;;;;;;3.60;1.80;;;10.60;99.90;;;;;;5154071;27;20122;-60
2022/05/12 02:06:39;;;;;;;5.10;2.20;;;10.60;99.90;;;;;;5153777;27;20492;-63
2022/05/12 02:09:06;;;;;;;5.75;2.08;;;10.60;99.90;;;;;;5157983;27;20061;-60
2022/05/12 02:11:32;;;;;;;5.95;1.95;;;10.50;99.90;;;;;;5153877;27;20077;-59
2022/05/12 02:13:58;;;;;;;6.07;2.20;;;10.50;99.90;;;;;;5117429;27;20554;-60
2022/05/12 02:16:25;;;;;;;7.25;2.33;;;10.40;99.90;;;;;;5135352;27;20046;-60
2022/05/12 02:18:52;;;;;;;8.15;2.25;;;10.40;99.90;;;;;;5134380;27;20050;-60
2022/05/12 02:21:19;;;;;;;6.63;2.25;;;10.40;99.90;;;;;;5174541;27;20137;-59
2022/05/12 02:23:45;;;;;;;4.32;2.22;;;10.40;99.90;;;;;;5159177;27;20388;-59
2022/05/12 02:26:11;;;;;;;5.63;2.22;;;10.50;99.90;;;;;;5153539;27;20129;-59
2022/05/12 02:28:36;;;;;;;8.13;2.40;;;10.40;99.90;;;;;;5135234;27;20452;-59
2022/05/12 02:31:02;;;;;;;5.57;2.42;;;10.50;99.90;;;;;;5152978;27;20069;-59
2022/05/12 02:33:28;;;;;;;7.47;2.40;;;10.40;99.90;;;;;;5134811;27;20098;-59
2022/05/12 02:35:53;;;;;;;5.07;2.65;;;10.40;99.90;;;;;;5152788;27;20050;-60
2022/05/12 02:38:19;;;;;;;4.93;2.83;;;10.40;99.90;;;;;;5153902;27;20047;-61
2022/05/12 02:40:45;;;;;;;7.90;2.90;;;10.30;99.90;;;;;;5149816;27;20073;-63
2022/05/12 02:43:23;;;;;;;5.22;2.53;;;10.40;99.90;;;;;;5172942;27;20064;-59
2022/05/12 02:46:00;;;;;;;7.20;2.90;;;10.30;99.90;;;;;;5152719;27;20043;-60
2022/05/12 02:48:29;;;;;;;8.80;2.65;;;10.30;99.90;;;;;;5153441;27;20042;-60
2022/05/12 02:50:55;;;;;;;5.10;2.55;;;10.40;99.90;;;;;;5144292;27;20096;-59
2022/05/12 02:53:21;;;;;;;10.60;3.10;;;10.30;99.90;;;;;;5174022;27;20113;-59
2022/05/12 02:55:47;;;;;;;7.53;2.80;;;10.30;99.90;;;;;;5136941;27;20149;-63
2022/05/12 02:58:13;;;;;;;8.55;3.05;;;10.30;99.90;;;;;;5153015;27;20054;-60
2022/05/12 03:00:39;;;;;;;8.88;3.63;;;10.30;99.90;;;;;;5143755;27;20118;-60
2022/05/12 03:03:07;;;;;;;10.10;3.95;;;10.30;99.90;;;;;;5151998;27;20123;-61
2022/05/12 03:05:33;;;;;;;6.68;2.92;;;10.30;99.90;;;;;;5152503;27;20491;-60
2022/05/12 03:07:59;;;;;;;8.85;2.97;;;10.30;99.90;;;;;;5152315;27;20145;-61
2022/05/12 03:10:25;;;;;;;9.18;3.30;;;10.30;99.90;;;;;;5161936;27;20045;-61
2022/05/12 03:12:52;;;;;;;11.35;3.20;;;10.30;99.90;;;;;;5152237;27;20129;-61
2022/05/12 03:15:18;;;;;;;8.70;3.10;;;10.30;99.90;;;;;;5133946;27;20042;-60
2022/05/12 03:17:44;;;;;;;9.15;3.15;;;10.30;99.90;;;;;;5134209;27;20402;-60
2022/05/12 03:20:14;;;;;;;10.15;3.63;;;10.30;99.90;;;;;;5125966;27;20362;-60
2022/05/12 03:22:40;;;;;;;14.50;3.10;;;10.30;99.90;;;;;;5131901;27;20054;-60
2022/05/12 03:25:09;;;;;;;12.35;3.78;;;10.20;99.90;;;;;;5131264;27;20134;-59
2022/05/12 03:27:35;;;;;;;7.85;3.72;;;10.20;99.90;;;;;;5148950;27;20050;-60
2022/05/12 03:30:02;;;;;;;7.15;3.50;;;10.30;99.90;;;;;;5156573;27;20031;-61
2022/05/12 03:32:27;;;;;;;9.18;3.80;;;10.20;99.90;;;;;;5145131;27;20441;-60
2022/05/12 03:34:53;;;;;;;12.75;4.40;;;10.20;99.90;;;;;;5149621;27;20054;-62
2022/05/12 03:37:19;;;;;;;14.70;4.10;;;10.20;99.90;;;;;;5135019;27;20113;-60
2022/05/12 03:39:45;;;;;;;9.07;4.10;;;10.20;99.90;;;;;;5113259;27;20091;-61
2022/05/12 03:42:12;;;;;;;8.88;3.78;;;10.20;99.90;;;;;;5144366;27;20042;-59
2022/05/12 03:44:47;;;;;;;7.13;4.40;;;10.20;99.90;;;;;;5133364;27;20050;-60
2022/05/12 03:47:25;;;;;;;8.15;4.10;;;10.30;99.90;;;;;;5132600;27;20118;-60
2022/05/12 03:49:57;;;;;;;9.20;4.90;;;10.20;99.90;;;;;;5133775;27;20138;-60
2022/05/12 03:52:24;;;;;;;14.23;5.85;;;10.30;99.90;;;;;;5151811;27;20045;-60
2022/05/12 03:54:51;;;;;;;12.52;5.70;;;10.30;99.90;;;;;;5132518;27;20050;-59
2022/05/12 03:57:17;;;;;;;13.15;4.90;;;10.30;99.90;;;;;;5150534;27;20058;-59
2022/05/12 03:59:44;;;;;;;19.23;5.13;;;10.30;99.90;;;;;;5133310;27;20050;-59
2022/05/12 04:02:13;;;;;;;12.95;5.13;;;10.30;99.90;;;;;;5163176;27;20174;-59
2022/05/12 04:04:41;;;;;;;11.65;5.32;;;10.30;99.90;;;;;;5117041;27;20111;-59
2022/05/12 04:07:08;;;;;;;12.40;4.70;;;10.30;99.90;;;;;;5151024;27;20042;-59
2022/05/12 04:09:34;;;;;;;13.15;5.05;;;10.30;99.90;;;;;;5150905;27;20448;-59
2022/05/12 04:11:59;;;;;;;9.57;4.68;;;10.30;99.90;;;;;;5137789;27;20121;-60
2022/05/12 04:14:25;;;;;;;11.23;5.35;;;10.40;99.90;;;;;;5134369;27;20129;-61
2022/05/12 04:16:51;;;;;;;10.27;4.80;;;10.40;99.90;;;;;;5153306;27;20094;-60
2022/05/12 04:19:17;;;;;;;12.32;5.30;;;10.40;99.90;;;;;;5114916;27;20034;-59
2022/05/12 04:21:42;;;;;;;11.30;4.85;;;10.40;99.90;;;;;;5151397;27;20047;-60
2022/05/12 04:24:09;;;;;;;9.77;4.93;;;10.40;99.90;;;;;;5132396;27;20039;-59
2022/05/12 04:26:36;;;;;;;17.85;5.82;;;10.50;99.90;;;;;;5151491;27;20050;-59
2022/05/12 04:29:05;;;;;;;15.00;5.68;;;10.50;99.90;;;;;;5115021;27;20115;-59
2022/05/12 04:31:31;;;;;;;11.90;5.05;;;10.50;99.90;;;;;;5151042;27;20136;-60
2022/05/12 04:36:41;;;;;;;9.68;4.60;;;10.70;99.90;;;;;;5151202;27;20051;-59
2022/05/12 04:39:08;;;;;;;9.07;4.18;;;11.30;99.90;;;;;;5132001;27;20070;-60
2022/05/12 04:41:35;;;;;;;13.20;4.38;;;11.80;99.90;;;;;;5115561;27;20054;-60
2022/05/12 04:44:01;;;;;;;10.30;4.38;;;12.50;99.90;;;;;;5171966;27;20503;-63
2022/05/12 04:46:28;;;;;;;7.13;3.80;;;12.90;99.90;;;;;;5153575;27;20154;-59
2022/05/12 04:48:55;;;;;;;10.18;4.25;;;13.40;99.90;;;;;;5150826;27;20053;-60
2022/05/12 04:51:21;;;;;;;12.27;4.30;;;13.80;99.90;;;;;;5150373;27;20051;-59
2022/05/12 04:53:47;;;;;;;8.85;3.35;;;14.10;99.90;;;;;;5132760;27;20035;-60
2022/05/12 04:56:13;;;;;;;9.07;3.90;;;14.40;99.90;;;;;;5150252;27;20047;-60
2022/05/12 04:58:39;;;;;;;8.05;3.83;;;14.70;99.90;;;;;;5151215;27;20058;-60
2022/05/12 05:01:05;;;;;;;8.93;3.80;;;15.00;99.90;;;;;;5150377;27;20121;-62
2022/05/12 05:03:32;;;;;;;9.07;4.10;;;15.30;99.90;;;;;;5151231;27;20455;-59
2022/05/12 05:05:59;;;;;;;10.35;3.78;;;15.60;99.90;;;;;;5133394;27;20051;-59
2022/05/12 05:08:25;;;;;;;7.82;3.47;;;15.80;99.90;;;;;;5154673;27;20043;-60
2022/05/12 05:10:53;;;;;;;11.63;4.15;;;16.30;99.90;;;;;;5139030;27;20058;-59
2022/05/12 05:13:21;;;;;;;9.50;3.42;;;16.60;99.90;;;;;;5154206;27;20123;-61
2022/05/12 05:15:48;;;;;;;9.88;3.70;;;17.00;99.90;;;;;;5154898;27;20672;-60
2022/05/12 05:18:16;;;;;;;8.93;3.55;;;17.20;99.90;;;;;;5153449;27;20118;-61
2022/05/12 05:20:43;;;;;;;7.82;3.40;;;17.50;99.90;;;;;;5154614;27;20111;-60
2022/05/12 05:23:10;;;;;;;10.07;3.25;;;17.80;99.90;;;;;;5158377;27;20126;-62
2022/05/12 05:25:36;;;;;;;9.35;3.47;;;18.20;99.90;;;;;;5139803;27;20073;-60
2022/05/12 05:28:02;;;;;;;9.20;3.33;;;18.30;99.90;;;;;;5117450;27;20051;-59
2022/05/12 05:30:28;;;;;;;8.93;3.17;;;18.30;99.90;;;;;;5135902;27;20548;-60
2022/05/12 05:32:55;;;;;;;8.57;3.38;;;18.70;99.90;;;;;;5166619;27;20479;-60
2022/05/12 05:35:21;;;;;;;7.63;2.90;;;19.00;99.90;;;;;;5153966;27;20097;-60
2022/05/12 05:37:48;;;;;;;10.45;3.50;;;19.10;99.90;;;;;;5153743;27;20070;-60
2022/05/12 05:40:17;;;;;;;9.20;3.25;;;19.50;99.90;;;;;;5153698;27;20058;-59
2022/05/12 05:42:44;;;;;;;9.10;3.28;;;19.70;99.90;;;;;;5127440;27;20046;-60
2022/05/12 05:45:12;;;;;;;7.15;3.15;;;20.10;99.90;;;;;;5153915;27;20075;-64
2022/05/12 05:47:45;;;;;;;7.72;3.20;;;20.50;99.90;;;;;;5134595;27;20566;-61
2022/05/12 05:50:14;;;;;;;8.70;3.22;;;21.10;99.90;;;;;;5134641;27;20035;-63
2022/05/12 05:55:24;;;;;;;7.68;3.25;;;21.80;99.60;;;;;;5128051;27;20051;-58
2022/05/12 05:57:50;;;;;;;6.28;2.97;;;22.40;99.20;;;;;;5139806;27;20063;-61
2022/05/12 06:00:17;;;;;;;8.00;2.72;;;22.60;98.00;;;;;;5146189;27;20154;-61
2022/05/12 06:02:43;;;;;;;8.35;2.80;;;22.50;98.00;;;;;;5158970;27;20046;-60
2022/05/12 06:05:10;;;;;;;8.57;2.75;;;22.60;98.10;;;;;;5170173;27;20114;-60
2022/05/12 06:07:36;;;;;;;7.35;2.92;;;23.00;97.50;;;;;;5153450;27;20138;-60
2022/05/12 06:10:03;;;;;;;5.65;2.47;;;23.50;96.50;;;;;;5152556;27;20528;-60
2022/05/12 06:12:30;;;;;;;7.90;2.65;;;23.60;95.80;;;;;;5142553;27;20510;-60
2022/05/12 06:14:56;;;;;;;8.43;2.67;;;23.80;95.60;;;;;;5153697;27;20054;-61
2022/05/12 06:17:22;;;;;;;6.05;2.47;;;23.90;94.80;;;;;;5133491;27;20127;-60
2022/05/12 06:19:50;;;;;;;6.88;2.47;;;24.40;94.70;;;;;;5134259;27;20445;-60
2022/05/12 06:22:19;;;;;;;7.63;2.67;;;24.70;94.40;;;;;;5135260;27;20058;-64
2022/05/12 06:24:47;;;;;;;6.82;2.63;;;24.90;94.00;;;;;;5134879;27;20047;-60
2022/05/12 06:27:14;;;;;;;6.65;2.50;;;25.00;92.70;;;;;;5153296;27;20095;-60
2022/05/12 06:29:41;;;;;;;6.97;2.72;;;25.20;92.20;;;;;;5152413;27;20046;-59
2022/05/12 06:32:07;;;;;;;7.80;2.47;;;25.20;92.10;;;;;;5105915;27;20548;-62
2022/05/12 06:34:34;;;;;;;7.45;2.25;;;25.10;91.60;;;;;;5152404;27;20083;-61
2022/05/12 06:36:59;;;;;;;7.30;2.15;;;25.00;91.50;;;;;;5133264;27;20556;-60
2022/05/12 06:39:26;;;;;;;5.75;2.40;;;25.20;91.40;;;;;;5150581;27;20054;-61
2022/05/12 06:41:52;;;;;;;6.75;2.13;;;25.50;90.90;;;;;;5123957;27;20183;-62
2022/05/12 06:44:19;;;;;;;8.07;2.58;;;25.90;90.40;;;;;;5145067;27;20043;-65
2022/05/12 06:46:45;;;;;;;7.25;2.20;;;25.70;88.90;;;;;;5096397;27;20035;-61
2022/05/12 06:49:10;;;;;;;8.30;2.30;;;25.40;88.90;;;;;;5138395;27;20054;-60
2022/05/12 06:51:37;;;;;;;5.38;2.13;;;25.70;89.30;;;;;;5152430;27;20055;-61
2022/05/12 06:54:03;;;;;;;6.60;2.10;;;26.00;88.00;;;;;;5134005;27;20046;-61
2022/05/12 06:56:29;;;;;;;7.10;1.88;;;26.00;88.30;;;;;;5147326;27;20134;-60
2022/05/12 06:58:55;;;;;;;6.57;2.00;;;26.10;86.20;;;;;;5152625;27;20096;-60
2022/05/12 07:01:20;;;;;;;6.72;2.15;;;26.30;85.80;;;;;;5134053;27;20043;-64
2022/05/12 07:03:46;;;;;;;7.13;2.00;;;26.50;85.70;;;;;;5142094;27;20054;-60
2022/05/12 07:06:12;;;;;;;6.35;1.90;;;26.30;84.50;;;;;;5134149;27;20098;-60
2022/05/12 07:08:41;;;;;;;6.20;1.88;;;26.70;85.00;;;;;;5149952;27;20414;-61
2022/05/12 07:11:12;;;;;;;6.75;2.33;;;27.10;84.30;;;;;;5144026;27;20050;-62
2022/05/12 07:13:38;;;;;;;7.80;2.30;;;27.20;83.30;;;;;;5151457;27;20050;-65
2022/05/12 07:16:06;;;;;;;5.97;1.83;;;27.30;82.50;;;;;;5162555;27;20034;-61
2022/05/12 07:18:32;;;;;;;7.85;2.15;;;26.90;81.00;;;;;;5149432;27;20055;-63
2022/05/12 07:26:36;;;;;;;7.50;2.42;;;27.50;81.40;;;;;;5149161;27;20121;-62
2022/05/12 07:29:04;;;;;;;7.25;2.17;;;28.00;81.90;;;;;;5147246;27;20441;-62
2022/05/12 07:31:30;;;;;;;7.00;2.25;;;28.30;80.20;;;;;;5149176;27;20046;-62
2022/05/12 07:34:00;;;;;;;6.57;2.22;;;28.30;78.30;;;;;;5123096;27;20050;-62
2022/05/12 07:36:37;;;;;;;5.65;2.05;;;28.20;77.50;;;;;;5138180;27;20083;-66
2022/05/12 07:39:05;;;;;;;6.93;1.88;;;28.30;77.70;;;;;;5144269;27;20046;-62
2022/05/12 07:41:32;;;;;;;5.10;1.75;;;28.50;78.00;;;;;;5148765;27;20403;-63
2022/05/12 07:43:59;;;;;;;8.13;2.10;;;28.00;76.90;;;;;;5149424;27;20411;-63
2022/05/12 07:46:28;;;;;;;10.90;2.70;;;27.30;77.80;;;;;;5121282;27;20480;-62
2022/05/12 07:48:54;;;;;;;6.30;2.40;;;26.30;78.20;;;;;;5149095;27;20054;-61
2022/05/12 07:51:21;;;;;;;6.43;2.10;;;26.30;79.60;;;;;;5141330;27;20038;-64
2022/05/12 07:53:48;;;;;;;5.93;2.10;;;26.70;79.20;;;;;;5151455;27;20047;-62
2022/05/12 07:56:16;;;;;;;6.82;2.10;;;27.30;79.10;;;;;;5149508;27;20049;-62
2022/05/12 07:58:44;;;;;;;8.27;2.08;;;27.60;77.30;;;;;;5140868;27;20059;-62
2022/05/12 08:01:11;;;;;;;8.10;2.13;;;28.30;76.70;;;;;;5149151;27;20058;-61
2022/05/12 08:03:38;;;;;;;6.38;2.03;;;28.60;75.60;;;;;;5144713;27;20046;-62
2022/05/12 08:06:04;;;;;;;6.88;2.17;;;28.50;75.10;;;;;;5130851;27;20057;-62
2022/05/12 08:08:30;;;;;;;6.80;1.88;;;28.70;74.70;;;;;;5119506;27;20039;-66
2022/05/12 08:10:55;;;;;;;4.68;1.60;;;29.10;74.70;;;;;;5147780;27;20076;-60
2022/05/12 08:13:22;;;;;;;7.22;2.42;;;29.70;73.80;;;;;;5143378;27;20106;-60
2022/05/12 08:15:51;;;;;;;5.50;1.83;;;30.20;72.60;;;;;;5130874;27;20380;-60
2022/05/12 08:18:19;;;;;;;4.30;1.58;;;30.50;71.60;;;;;;5151637;27;20095;-61
2022/05/12 08:20:45;;;;;;;5.38;1.77;;;29.90;71.10;;;;;;5137749;27;20043;-61
2022/05/12 08:23:11;;;;;;;7.53;2.30;;;29.80;71.30;;;;;;5147840;27;20121;-61
2022/05/12 08:25:38;;;;;;;6.57;2.00;;;29.70;71.30;;;;;;5138297;27;20035;-62
2022/05/12 08:28:04;;;;;;;6.80;1.90;;;29.60;69.90;;;;;;5131423;27;20037;-61
2022/05/12 08:30:31;;;;;;;6.35;1.95;;;29.20;70.50;;;;;;5130822;28;20531;-61
2022/05/12 08:32:58;;;;;;;7.03;1.77;;;28.90;70.40;;;;;;5136004;27;20050;-61
2022/05/12 08:35:24;;;;;;;4.93;1.92;;;28.50;70.20;;;;;;5129380;27;20046;-61
2022/05/12 08:37:50;;;;;;;6.95;2.03;;;28.00;70.50;;;;;;5143862;27;20777;-61
2022/05/12 08:40:50;;;;;;;6.60;2.00;;;27.90;71.80;;;;;;5120833;27;20098;-61
2022/05/12 08:43:33;;;;;;;5.88;1.70;;;28.00;68.90;;;;;;5159149;27;20042;-62
2022/05/12 08:46:04;;;;;;;6.57;1.52;;;27.50;69.70;;;;;;5147719;27;20046;-63
2022/05/12 08:48:31;;;;;;;5.25;1.67;;;27.10;69.90;;;;;;5151294;27;20074;-61
2022/05/12 08:50:57;;;;;;;3.80;1.48;;;26.90;70.00;;;;;;5122256;27;20649;-62
2022/05/12 08:53:27;;;;;;;5.85;1.88;;;26.10;70.50;;;;;;5154990;27;20129;-62
2022/05/12 08:55:56;;;;;;;4.22;1.67;;;25.30;71.40;;;;;;5130982;27;20055;-62
2022/05/12 08:58:22;;;;;;;6.45;1.80;;;25.30;72.40;;;;;;5147847;27;20460;-63
2022/05/12 09:01:17;;;;;;;6.10;1.95;;;25.40;73.20;;;;;;5132543;27;20047;-63
2022/05/12 09:04:01;;;;;;;5.90;1.70;;;25.40;72.40;;;;;;5124016;27;20099;-61
2022/05/12 09:06:35;;;;;;;5.30;1.75;;;25.40;72.20;;;;;;5122189;27;20050;-62
2022/05/12 09:09:12;;;;;;;5.57;1.77;;;25.40;73.50;;;;;;5151327;27;20038;-63
2022/05/12 09:11:38;;;;;;;5.82;1.50;;;26.00;71.60;;;;;;5144443;27;20089;-61
2022/05/12 09:14:10;;;;;;;6.82;1.80;;;26.10;71.40;;;;;;5140814;27;20074;-61
2022/05/12 09:16:36;;;;;;;4.78;1.80;;;26.10;71.40;;;;;;5153358;27;20046;-62
2022/05/12 09:19:02;;;;;;;5.70;1.83;;;26.50;71.40;;;;;;5145389;27;20464;-63
2022/05/12 09:21:35;;;;;;;6.85;1.83;;;26.90;70.60;;;;;;5097481;27;20499;-61
2022/05/12 09:24:03;;;;;;;5.07;1.80;;;27.50;70.60;;;;;;5130402;27;20529;-62
2022/05/12 09:26:46;;;;;;;5.68;1.90;;;27.40;68.90;;;;;;5135314;27;20062;-62
2022/05/12 09:29:21;;;;;;;4.28;1.48;;;27.40;68.80;;;;;;5154878;27;20099;-62
2022/05/12 09:31:49;;;;;;;4.45;1.48;;;27.60;69.50;;;;;;5134928;27;20043;-61
2022/05/12 09:34:37;;;;;;;4.10;1.42;;;27.70;68.70;;;;;;5154844;27;20046;-61
2022/05/12 09:37:26;;;;;;;5.45;1.55;;;27.20;67.60;;;;;;5130005;27;20800;-62
2022/05/12 09:40:18;;;;;;;4.32;1.30;;;27.00;67.40;;;;;;5137186;27;20055;-62
2022/05/12 09:42:56;;;;;;;3.70;1.58;;;26.90;67.10;;;;;;5142170;27;20526;-65
2022/05/12 09:45:32;;;;;;;3.65;1.50;;;26.90;67.00;;;;;;5136485;27;20058;-62
2022/05/12 09:48:32;;;;;;;5.20;1.80;;;26.50;68.50;;;;;;5143226;27;20031;-63
2022/05/12 09:51:32;;;;;;;5.03;1.75;;;25.90;67.70;;;;;;5086531;27;20416;-62
2022/05/12 09:54:16;;;;;;;5.15;1.40;;;25.30;68.00;;;;;;5137943;27;20050;-62
2022/05/12 09:56:55;;;;;;;5.30;1.80;;;24.80;68.90;;;;;;5149323;27;20415;-62
2022/05/12 09:59:26;;;;;;;5.70;1.50;;;24.70;70.20;;;;;;5150922;27;20058;-63
2022/05/12 10:08:26;;;;;;;5.60;1.40;;;24.10;69.70;;;;;;5148231;27;20390;-63
2022/05/12 10:11:05;;;;;;;6.18;1.80;;;24.20;68.80;;;;;;5122954;27;20046;-63
2022/05/12 10:13:51;;;;;;;3.75;1.50;;;24.00;69.30;;;;;;5126481;27;20058;-62
2022/05/12 10:16:25;;;;;;;3.83;1.70;;;24.00;69.40;;;;;;5153395;27;20039;-62
2022/05/12 10:18:56;;;;;;;4.90;1.48;;;23.70;68.50;;;;;;5134525;27;20067;-63
2022/05/12 10:21:32;;;;;;;5.38;1.75;;;23.40;69.30;;;;;;5146611;27;20054;-64
2022/05/12 10:24:10;;;;;;;4.65;1.63;;;23.20;70.80;;;;;;5148528;27;20127;-64
2022/05/12 10:27:11;;;;;;;4.85;1.70;;;23.30;71.90;;;;;;5146744;27;20057;-62
2022/05/12 10:30:14;;;;;;;4.03;1.70;;;22.80;70.10;;;;;;5131237;27;20069;-64
2022/05/12 10:33:03;;;;;;;4.50;1.40;;;22.80;70.40;;;;;;5125002;27;20368;-64
2022/05/12 10:35:47;;;;;;;5.72;1.50;;;22.60;70.90;;;;;;5151429;27;20046;-62
2022/05/12 10:38:27;;;;;;;3.47;1.55;;;22.60;71.90;;;;;;5144422;27;20027;-63
2022/05/12 10:41:14;;;;;;;5.20;1.55;;;22.60;71.60;;;;;;5133511;27;20047;-65
2022/05/12 10:43:45;;;;;;;3.78;1.15;;;22.70;72.50;;;;;;5153411;27;20042;-63
2022/05/12 10:46:23;;;;;;;4.32;1.52;;;22.90;70.80;;;;;;5153654;27;20414;-62
2022/05/12 10:49:18;;;;;;;5.40;1.50;;;22.80;70.10;;;;;;5151954;27;20098;-62
2022/05/12 10:52:02;;;;;;;4.35;1.60;;;22.70;71.10;;;;;;5134676;27;20050;-63
2022/05/12 10:54:27;;;;;;;3.38;1.63;;;22.60;71.50;;;;;;5161492;27;20046;-62
2022/05/12 10:57:15;;;;;;;4.10;1.48;;;22.30;71.60;;;;;;5166404;27;20043;-62
2022/05/12 11:00:08;;;;;;;4.82;1.77;;;22.40;71.90;;;;;;5148644;27;20076;-62
2022/05/12 11:02:37;;;;;;;3.88;1.52;;;22.20;72.60;;;;;;5134737;27;20100;-63
2022/05/12 11:05:21;;;;;;;4.47;1.42;;;22.30;72.90;;;;;;5153057;27;20043;-63
2022/05/12 11:08:04;;;;;;;8.18;1.90;;;22.40;72.70;;;;;;5134256;27;20081;-63
2022/05/12 11:10:54;;;;;;;9.18;1.75;;;22.40;71.50;;;;;;5134628;27;20146;-63
2022/05/12 11:13:24;;;;;;;3.28;1.08;;;22.20;71.00;;;;;;5137014;27;20058;-63
2022/05/12 11:15:54;;;;;;;3.72;1.60;;;22.00;70.50;;;;;;5173639;27;20121;-64
2022/05/12 11:18:31;;;;;;;4.38;1.40;;;21.90;72.30;;;;;;5140579;27;20050;-63
2022/05/12 11:21:20;;;;;;;4.97;1.60;;;21.90;72.70;;;;;;5152859;27;20152;-64
2022/05/12 11:24:10;;;;;;;6.13;1.58;;;21.90;73.10;;;;;;5139792;27;20177;-63
2022/05/12 11:26:58;;;;;;;4.43;1.30;;;21.70;72.30;;;;;;5152859;27;20061;-61
2022/05/12 11:30:05;;;;;;;5.13;1.42;;;21.50;72.30;;;;;;5134066;27;20483;-63
2022/05/12 11:32:44;;;;;;;3.50;1.30;;;21.50;73.70;;;;;;5152036;27;20125;-62
2022/05/12 11:35:20;;;;;;;2.88;1.10;;;21.50;73.00;;;;;;5157116;27;20123;-63
2022/05/12 11:37:50;;;;;;;5.30;1.45;;;21.30;73.10;;;;;;5132062;27;20380;-62
2022/05/12 11:40:40;;;;;;;3.97;1.40;;;21.40;73.80;;;;;;5131600;27;20092;-62
2022/05/12 11:46:23;;;;;;;4.25;1.42;;;21.60;72.40;;;;;;5144176;27;20051;-62
2022/05/12 11:48:59;;;;;;;4.05;1.40;;;21.80;72.50;;;;;;5137140;27;20572;-63
2022/05/12 11:51:43;;;;;;;3.97;1.20;;;21.70;72.60;;;;;;5133476;27;20046;-62
2022/05/12 11:54:19;;;;;;;5.50;1.40;;;21.90;72.80;;;;;;5152951;27;20564;-62
2022/05/12 11:56:51;;;;;;;5.97;1.73;;;21.80;73.30;;;;;;5168681;27;20043;-62
2022/05/12 11:59:26;;;;;;;5.68;1.50;;;21.80;73.40;;;;;;5150681;27;20054;-62
2022/05/12 12:02:18;;;;;;;4.30;1.55;;;21.80;73.20;;;;;;5133779;27;20065;-62
2022/05/12 12:04:47;;;;;;;4.15;1.40;;;21.80;73.90;;;;;;5154785;27;20096;-62
2022/05/12 12:07:38;;;;;;;5.95;1.65;;;21.90;74.70;;;;;;5172479;27;20042;-62
2022/05/12 12:10:23;;;;;;;3.85;1.70;;;21.80;73.40;;;;;;5166533;27;20054;-64
2022/05/12 12:12:54;;;;;;;5.93;1.77;;;21.70;73.50;;;;;;5151687;27;20126;-62
2022/05/12 12:15:20;;;;;;;4.40;1.50;;;21.60;74.40;;;;;;5165656;27;20524;-62
2022/05/12 12:17:46;;;;;;;5.93;1.58;;;21.50;74.90;;;;;;5172664;27;20085;-62
2022/05/12 12:20:31;;;;;;;6.55;1.77;;;21.50;75.20;;;;;;5153059;27;20117;-63
2022/05/12 12:23:17;;;;;;;4.47;1.58;;;21.60;74.90;;;;;;5096018;27;20047;-64
2022/05/12 12:25:47;;;;;;;6.13;1.55;;;21.70;75.50;;;;;;5146616;27;20046;-62
2022/05/12 12:28:25;;;;;;;4.25;1.60;;;21.90;74.60;;;;;;5171911;27;20398;-62
2022/05/12 12:30:50;;;;;;;4.72;1.80;;;22.00;73.60;;;;;;5171634;27;20487;-62
2022/05/12 12:33:25;;;;;;;6.90;1.90;;;21.90;72.50;;;;;;5151423;27;20053;-62
2022/05/12 12:36:25;;;;;;;3.80;1.60;;;21.80;73.20;;;;;;5132761;27;20134;-62
2022/05/12 12:38:54;;;;;;;4.13;1.63;;;21.70;73.00;;;;;;5149843;27;20051;-62
2022/05/12 12:41:30;;;;;;;5.05;1.65;;;21.50;74.70;;;;;;5151289;27;20047;-62
2022/05/12 13:47:49;;;;;;;5.18;1.50;;;20.80;73.10;;;;;;4218036;26;20075;-62
2022/05/12 13:50:16;;;;;;;4.90;1.90;;;20.90;73.80;;;;;;5112990;27;20055;-61
2022/05/12 13:52:47;;;;;;;5.70;1.60;;;20.90;72.50;;;;;;5112165;28;20545;-61
2022/05/12 13:55:19;;;;;;;3.25;1.20;;;21.00;72.20;;;;;;5114083;27;20083;-62
2022/05/12 13:57:50;;;;;;;4.78;1.65;;;21.00;70.80;;;;;;5124635;27;20372;-62
2022/05/12 14:00:26;;;;;;;4.75;1.40;;;21.00;71.60;;;;;;5131850;27;20090;-62
2022/05/12 14:02:55;;;;;;;4.20;1.50;;;20.90;71.60;;;;;;5115439;27;20099;-65
2022/05/12 14:05:27;;;;;;;3.97;1.60;;;20.90;71.50;;;;;;5133414;27;20054;-61
2022/05/12 14:08:23;;;;;;;4.65;1.70;;;20.70;71.40;;;;;;5131818;27;20047;-61
2022/05/12 14:11:18;;;;;;;4.30;1.38;;;20.60;71.30;;;;;;5131750;27;20087;-61
2022/05/12 14:19:15;;;;;;;4.13;1.52;;;20.80;73.60;;;;;;5095049;28;20043;-62
2022/05/12 14:22:03;;;;;;;3.38;1.75;;;20.80;73.90;;;;;;5095610;27;20499;-62
2022/05/12 14:24:31;;;;;;;4.38;1.27;;;20.70;73.00;;;;;;5118144;27;20043;-61
2022/05/12 14:26:58;;;;;;;4.03;1.50;;;20.60;74.10;;;;;;5132872;27;20039;-61
2022/05/12 14:29:25;;;;;;;4.45;1.50;;;20.40;74.30;;;;;;5131295;27;20042;-62
2022/05/12 14:31:52;;;;;;;7.07;2.10;;;20.50;75.50;;;;;;5133130;27;20043;-62
2022/05/12 14:34:19;;;;;;;4.20;1.60;;;20.40;75.00;;;;;;5131590;27;20131;-63